OMPIP LZKZ-LZKZ
Flight info
| Callsign | OMPIP |
|---|---|
| Flight time | 0h 5m |
| Altitude | 3500 |
| Route | |
| Aircraft | P28A |
Departure
| Time | 2026-05-06 18:29 |
|---|---|
| Airport | Košice International Airport (LZKZ) |
Arrival
| Time | 2026-05-06 18:34 |
|---|---|
| Airport | Košice International Airport (LZKZ) |
| Time | Latitude | Longitude | Altitude | Speed | Heading |
|---|---|---|---|---|---|
| 2026-05-06 18:23 | 48.67092 | 21.23653 | 750 ft | 0 kts | 303° |
| 2026-05-06 18:25 | 48.67099 | 21.23661 | 750 ft | 6 kts | 94° |
| 2026-05-06 18:25 | 48.67010 | 21.23732 | 749 ft | 22 kts | 148° |
| 2026-05-06 18:25 | 48.66864 | 21.23869 | 747 ft | 20 kts | 138° |
| 2026-05-06 18:26 | 48.66824 | 21.24027 | 746 ft | 12 kts | 103° |
| 2026-05-06 18:26 | 48.66808 | 21.24126 | 744 ft | 2 kts | 101° |
| 2026-05-06 18:26 | 48.66806 | 21.24136 | 743 ft | 0 kts | 103° |
| 2026-05-06 18:28 | 48.66795 | 21.24219 | 742 ft | 23 kts | 107° |
| 2026-05-06 18:28 | 48.66516 | 21.24196 | 761 ft | 60 kts | 185° |
| 2026-05-06 18:28 | 48.66071 | 21.24057 | 881 ft | 72 kts | 187° |
| 2026-05-06 18:28 | 48.65544 | 21.23907 | 1003 ft | 81 kts | 190° |
| 2026-05-06 18:29 | 48.64884 | 21.23638 | 869 ft | 106 kts | 191° |
| 2026-05-06 18:29 | 48.64666 | 21.24019 | 1397 ft | 77 kts | 85° |
| 2026-05-06 18:29 | 48.64839 | 21.24936 | 1418 ft | 102 kts | 56° |
| 2026-05-06 18:29 | 48.65324 | 21.25509 | 1741 ft | 80 kts | 9° |
| 2026-05-06 18:30 | 48.65854 | 21.25656 | 1803 ft | 95 kts | 360° |
| 2026-05-06 18:30 | 48.66587 | 21.25844 | 1780 ft | 103 kts | 12° |
| 2026-05-06 18:30 | 48.67221 | 21.26118 | 1765 ft | 90 kts | 13° |
| 2026-05-06 18:30 | 48.67813 | 21.26397 | 1824 ft | 87 kts | 13° |
| 2026-05-06 18:31 | 48.68364 | 21.26666 | 1830 ft | 77 kts | 13° |
| 2026-05-06 18:31 | 48.68843 | 21.26854 | 1775 ft | 77 kts | 354° |
| 2026-05-06 18:31 | 48.69294 | 21.27321 | 1701 ft | 76 kts | 109° |
| 2026-05-06 18:31 | 48.69112 | 21.27273 | 1759 ft | 69 kts | 306° |
| 2026-05-06 18:32 | 48.69202 | 21.27435 | 1770 ft | 67 kts | 275° |
| 2026-05-06 18:32 | 48.69302 | 21.27551 | 1745 ft | 69 kts | 268° |
| 2026-05-06 18:32 | 48.69411 | 21.27679 | 1695 ft | 69 kts | 243° |
| 2026-05-06 18:32 | 48.69561 | 21.27856 | 1652 ft | 78 kts | 191° |
| 2026-05-06 18:33 | 48.69732 | 21.27983 | 1589 ft | 84 kts | 140° |
| 2026-05-06 18:33 | 48.69497 | 21.27450 | 1383 ft | 77 kts | 286° |
| 2026-05-06 18:33 | 48.70085 | 21.27157 | 1385 ft | 104 kts | 337° |
| 2026-05-06 18:33 | 48.70604 | 21.26522 | 1405 ft | 85 kts | 287° |
| 2026-05-06 18:34 | 48.70581 | 21.25645 | 1411 ft | 83 kts | 234° |
| 2026-05-06 18:34 | 48.70173 | 21.25459 | 1281 ft | 56 kts | 193° |
| 2026-05-06 18:34 | 48.69826 | 21.25343 | 1161 ft | 46 kts | 184° |
| 2026-05-06 18:34 | 48.69555 | 21.25136 | 1071 ft | 56 kts | 249° |
| 2026-05-06 18:35 | 48.69641 | 21.25206 | 948 ft | 55 kts | 221° |
| 2026-05-06 18:35 | 48.69891 | 21.24840 | 955 ft | 67 kts | 355° |
| 2026-05-06 18:35 | 48.70320 | 21.24624 | 1006 ft | 72 kts | 309° |
| 2026-05-06 18:35 | 48.70764 | 21.24268 | 1189 ft | 74 kts | 7° |
| 2026-05-06 18:36 | 48.70800 | 21.24871 | 1336 ft | 59 kts | 139° |
| 2026-05-06 18:36 | 48.70704 | 21.24385 | 1318 ft | 84 kts | 263° |
| 2026-05-06 18:36 | 48.70560 | 21.24518 | 1341 ft | 105 kts | 104° |
| 2026-05-06 18:36 | 48.70747 | 21.25185 | 1694 ft | 85 kts | 345° |
| 2026-05-06 18:37 | 48.71337 | 21.24684 | 1471 ft | 107 kts | 284° |
| 2026-05-06 18:37 | 48.70923 | 21.24228 | 1434 ft | 103 kts | 166° |
| 2026-05-06 18:37 | 48.70251 | 21.24625 | 1493 ft | 105 kts | 157° |
| 2026-05-06 18:37 | 48.69587 | 21.25136 | 1443 ft | 113 kts | 155° |
| 2026-05-06 18:38 | 48.68925 | 21.25675 | 1546 ft | 105 kts | 150° |
| 2026-05-06 18:38 | 48.69251 | 21.26373 | 1284 ft | 100 kts | 8° |
| 2026-05-06 18:38 | 48.69563 | 21.26216 | 1144 ft | 108 kts | 266° |
| 2026-05-06 18:38 | 48.69800 | 21.25966 | 1422 ft | 96 kts | 49° |
| 2026-05-06 18:39 | 48.70349 | 21.26509 | 1552 ft | 102 kts | 36° |
| 2026-05-06 18:39 | 48.70923 | 21.27265 | 1609 ft | 112 kts | 28° |
| 2026-05-06 18:39 | 48.71512 | 21.27259 | 2087 ft | 44 kts | 261° |
| 2026-05-06 18:40 | 48.70763 | 21.26857 | 1538 ft | 69 kts | 221° |
| 2026-05-06 18:40 | 48.70501 | 21.26344 | 1561 ft | 48 kts | 201° |
| 2026-05-06 18:40 | 48.70235 | 21.26200 | 1719 ft | 43 kts | 177° |
| 2026-05-06 18:40 | 48.69963 | 21.26300 | 1863 ft | 44 kts | 154° |
| 2026-05-06 18:41 | 48.69721 | 21.26580 | 1986 ft | 46 kts | 142° |
| 2026-05-06 18:41 | 48.69513 | 21.26934 | 2082 ft | 59 kts | 121° |
| 2026-05-06 18:41 | 48.69414 | 21.27540 | 2296 ft | 62 kts | 57° |
| 2026-05-06 18:41 | 48.69881 | 21.27647 | 2307 ft | 59 kts | 330° |
| 2026-05-06 18:42 | 48.70077 | 21.28268 | 1485 ft | 111 kts | 359° |
| 2026-05-06 18:42 | 48.69889 | 21.27832 | 1230 ft | 94 kts | 187° |
| 2026-05-06 18:42 | 48.69362 | 21.27144 | 1092 ft | 112 kts | 230° |
| 2026-05-06 18:42 | 48.69064 | 21.26225 | 1141 ft | 84 kts | 246° |
| 2026-05-06 18:43 | 48.68848 | 21.25475 | 1093 ft | 65 kts | 232° |
| 2026-05-06 18:43 | 48.68565 | 21.25049 | 1007 ft | 59 kts | 209° |
| 2026-05-06 18:43 | 48.68186 | 21.24783 | 948 ft | 62 kts | 195° |
| 2026-05-06 18:43 | 48.67739 | 21.24620 | 822 ft | 64 kts | 192° |
| 2026-05-06 18:44 | 48.67346 | 21.24483 | 751 ft | 54 kts | 190° |
| 2026-05-06 18:44 | 48.67012 | 21.24366 | 745 ft | 43 kts | 191° |
| 2026-05-06 18:44 | 48.66802 | 21.24213 | 742 ft | 29 kts | 255° |
| 2026-05-06 18:44 | 48.66829 | 21.24009 | 746 ft | 0 kts | 283° |
| 2026-05-06 18:45 | 48.66846 | 21.23909 | 747 ft | 33 kts | 293° |
| 2026-05-06 18:45 | 48.67067 | 21.23682 | 750 ft | 9 kts | 290° |
| 2026-05-06 18:45 | 48.67075 | 21.23686 | 750 ft | 0 kts | 329° |